createdAt,value
2019-04-28T00:00:52.948Z,100069.00
2019-04-28T00:03:23.662Z,100070.00
2019-04-28T00:05:53.421Z,100089.00
2019-04-28T00:08:25.387Z,100082.00
2019-04-28T00:10:56.418Z,100087.00
2019-04-28T00:13:27.175Z,100104.00
2019-04-28T00:16:02.386Z,100103.00
2019-04-28T00:18:32.065Z,100093.00
2019-04-28T00:21:20.954Z,100099.00
2019-04-28T00:23:52.422Z,100093.00
2019-04-28T00:26:26.667Z,100096.00
2019-04-28T00:28:57.899Z,100101.00
2019-04-28T00:31:31.147Z,100108.00
2019-04-28T00:34:01.266Z,100124.00
2019-04-28T00:36:31.451Z,100111.00
2019-04-28T00:39:01.675Z,100105.00
2019-04-28T00:41:31.582Z,100128.00
2019-04-28T00:44:01.928Z,100116.00
2019-04-28T00:46:33.320Z,100126.00
2019-04-28T00:49:04.789Z,100121.00
2019-04-28T00:51:34.523Z,100115.00
2019-04-28T00:54:04.498Z,100127.00
2019-04-28T00:56:34.195Z,100137.00
2019-04-28T00:59:03.687Z,100143.00
2019-04-28T01:01:34.918Z,100132.00
2019-04-28T01:04:04.610Z,100121.00
2019-04-28T01:06:34.262Z,100135.00
2019-04-28T01:09:05.478Z,100122.00
2019-04-28T01:11:35.229Z,100133.00
2019-04-28T01:14:07.729Z,100126.00
2019-04-28T01:16:43.227Z,100135.00
2019-04-28T01:19:20.792Z,100130.00
2019-04-28T01:22:07.389Z,100145.00
2019-04-28T01:24:39.784Z,100147.00
2019-04-28T01:27:30.387Z,100141.00
2019-04-28T01:30:08.306Z,100132.00
2019-04-28T01:32:35.852Z,100135.00
2019-04-28T01:35:06.898Z,100127.00
2019-04-28T01:37:36.525Z,100135.00
2019-04-28T01:40:09.597Z,100119.00
2019-04-28T01:42:42.092Z,100130.00
2019-04-28T01:45:12.741Z,100126.00
2019-04-28T01:47:42.415Z,100149.00
2019-04-28T01:50:13.741Z,100128.00
2019-04-28T01:52:43.703Z,100143.00
2019-04-28T01:55:13.372Z,100155.00
2019-04-28T01:57:43.055Z,100143.00
2019-04-28T02:00:22.984Z,100148.00
2019-04-28T02:02:47.661Z,100151.00
2019-04-28T02:05:19.609Z,100159.00
2019-04-28T02:07:50.581Z,100153.00
2019-04-28T02:10:21.861Z,100163.00
2019-04-28T02:12:51.584Z,100154.00
2019-04-28T02:15:21.417Z,100170.00
2019-04-28T02:17:51.732Z,100165.00
2019-04-28T02:20:22.915Z,100159.00
2019-04-28T02:22:59.974Z,100159.00
2019-04-28T02:25:29.887Z,100174.00
2019-04-28T02:27:59.979Z,100184.00
2019-04-28T02:30:42.322Z,100169.00
2019-04-28T02:33:01.821Z,100185.00
2019-04-28T02:35:34.165Z,100183.00
2019-04-28T02:38:04.587Z,100190.00
2019-04-28T02:40:34.252Z,100184.00
2019-04-28T02:43:04.230Z,100191.00
2019-04-28T02:45:41.033Z,100193.00
2019-04-28T02:48:13.081Z,100200.00
2019-04-28T02:50:44.440Z,100208.00
2019-04-28T02:53:20.892Z,100204.00
2019-04-28T02:55:51.362Z,100202.00
2019-04-28T02:58:22.552Z,100210.00
2019-04-28T03:01:06.165Z,100208.00
2019-04-28T03:03:24.021Z,100218.00
2019-04-28T03:05:53.669Z,100217.00
2019-04-28T03:08:24.126Z,100221.00
2019-04-28T03:10:53.826Z,100228.00
2019-04-28T03:13:23.493Z,100250.00
2019-04-28T03:15:53.239Z,100243.00
2019-04-28T03:18:22.950Z,100239.00
2019-04-28T03:20:52.606Z,100247.00
2019-04-28T03:23:22.275Z,100239.00
2019-04-28T03:25:53.589Z,100238.00
2019-04-28T03:28:33.979Z,100244.00
2019-04-28T03:31:48.936Z,100240.00
2019-04-28T03:33:55.632Z,100247.00
2019-04-28T03:36:24.312Z,100251.00
2019-04-28T03:38:54.072Z,100251.00
2019-04-28T03:41:23.693Z,100256.00
2019-04-28T03:43:53.339Z,100263.00
2019-04-28T03:46:24.664Z,100255.00
2019-04-28T03:48:54.319Z,100258.00
2019-04-28T03:51:23.886Z,100257.00
2019-04-28T03:53:55.046Z,100250.00
2019-04-28T03:56:24.723Z,100257.00
2019-04-28T03:58:54.403Z,100263.00
2019-04-28T04:01:24.095Z,100258.00
2019-04-28T04:03:53.770Z,100254.00
2019-04-28T04:06:23.540Z,100265.00
2019-04-28T04:08:53.238Z,100260.00
2019-04-28T04:11:31.070Z,100266.00
2019-04-28T04:14:02.008Z,100271.00
2019-04-28T04:16:33.351Z,100272.00
2019-04-28T04:19:05.908Z,100273.00
2019-04-28T04:21:35.611Z,100274.00
2019-04-28T04:24:10.843Z,100297.00
2019-04-28T04:26:50.542Z,100288.00
2019-04-28T04:29:22.166Z,100304.00
2019-04-28T04:32:09.395Z,100298.00
2019-04-28T04:34:24.827Z,100300.00
2019-04-28T04:36:54.513Z,100297.00
2019-04-28T04:39:24.202Z,100304.00
2019-04-28T04:41:53.808Z,100316.00
2019-04-28T04:44:23.459Z,100322.00
2019-04-28T04:46:53.143Z,100315.00
2019-04-28T04:49:22.926Z,100318.00
2019-04-28T04:51:52.593Z,100313.00
2019-04-28T04:54:22.226Z,100333.00
2019-04-28T04:56:51.886Z,100301.00
2019-04-28T04:59:21.553Z,100319.00
2019-04-28T05:01:55.984Z,100320.00
2019-04-28T05:04:27.314Z,100339.00
2019-04-28T05:06:56.972Z,100332.00
2019-04-28T05:09:26.659Z,100342.00
2019-04-28T05:11:56.323Z,100358.00
2019-04-28T05:14:26.050Z,100344.00
2019-04-28T05:16:55.786Z,100338.00
2019-04-28T05:19:25.451Z,100356.00
2019-04-28T05:21:55.135Z,100351.00
2019-04-28T05:24:35.331Z,100354.00
2019-04-28T05:27:05.820Z,100358.00
2019-04-28T05:29:36.176Z,100365.00
2019-04-28T05:32:06.027Z,100351.00
2019-04-28T05:34:39.830Z,100351.00
2019-04-28T05:37:07.110Z,100364.00
2019-04-28T05:39:38.567Z,100369.00
2019-04-28T05:42:11.049Z,100381.00
2019-04-28T05:44:40.830Z,100372.00
2019-04-28T05:47:12.461Z,100378.00
2019-04-28T05:49:43.776Z,100377.00
2019-04-28T05:52:33.351Z,100370.00
2019-04-28T05:55:04.649Z,100384.00
2019-04-28T05:57:35.965Z,100381.00
2019-04-28T06:00:26.646Z,100388.00
2019-04-28T06:02:57.949Z,100395.00
2019-04-28T06:05:27.620Z,100390.00
2019-04-28T06:07:59.613Z,100395.00
2019-04-28T06:10:29.929Z,100419.00
2019-04-28T06:13:00.896Z,100401.00
2019-04-28T06:15:31.186Z,100400.00
2019-04-28T06:18:00.854Z,100413.00
2019-04-28T06:20:30.615Z,100424.00
2019-04-28T06:23:00.312Z,100372.00
2019-04-28T06:25:29.971Z,100432.00
2019-04-28T06:27:59.669Z,100424.00
2019-04-28T06:30:29.429Z,100437.00
2019-04-28T06:33:07.719Z,100437.00
2019-04-28T06:35:31.957Z,100432.00
2019-04-28T06:38:01.731Z,100448.00
2019-04-28T06:40:31.416Z,100439.00
2019-04-28T06:43:01.180Z,100453.00
2019-04-28T06:45:30.876Z,100461.00
2019-04-28T06:48:00.539Z,100451.00
2019-04-28T06:50:30.357Z,100446.00
2019-04-28T06:53:02.796Z,100449.00
2019-04-28T06:55:31.454Z,100452.00
2019-04-28T06:58:01.051Z,100454.00
2019-04-28T07:00:30.750Z,100462.00
2019-04-28T07:03:00.423Z,100468.00
2019-04-28T07:05:30.087Z,100469.00
2019-04-28T07:07:59.793Z,100471.00
2019-04-28T07:10:29.402Z,100474.00
2019-04-28T07:12:59.645Z,100488.00
2019-04-28T07:15:29.396Z,100488.00
2019-04-28T07:17:59.071Z,100493.00
2019-04-28T07:20:35.974Z,100481.00
2019-04-28T07:23:06.316Z,100493.00
2019-04-28T07:25:35.986Z,100490.00
2019-04-28T07:28:05.968Z,100496.00
2019-04-28T07:30:37.289Z,100499.00
2019-04-28T07:33:06.949Z,100501.00
2019-04-28T07:35:47.270Z,100508.00
2019-04-28T07:38:16.939Z,100499.00
2019-04-28T07:40:46.626Z,100517.00
2019-04-28T07:43:16.300Z,100513.00
2019-04-28T07:45:46.316Z,100527.00
2019-04-28T07:48:16.005Z,100512.00
2019-04-28T07:50:45.687Z,100515.00
2019-04-28T07:53:28.837Z,100506.00
2019-04-28T07:55:58.591Z,100506.00
2019-04-28T07:58:28.188Z,100521.00
2019-04-28T08:00:58.145Z,100528.00
2019-04-28T08:03:27.890Z,100523.00
2019-04-28T08:05:57.560Z,100524.00
2019-04-28T08:08:29.486Z,100514.00
2019-04-28T08:10:59.161Z,100519.00
2019-04-28T08:13:29.181Z,100526.00
2019-04-28T08:15:58.875Z,100531.00
2019-04-28T08:18:31.483Z,100519.00
2019-04-28T08:20:59.948Z,100530.00
2019-04-28T08:23:29.721Z,100538.00
2019-04-28T08:25:59.405Z,100557.00
2019-04-28T08:28:29.268Z,100557.00
2019-04-28T08:30:59.032Z,100555.00
2019-04-28T08:33:40.474Z,100555.00
2019-04-28T08:36:31.945Z,100553.00
2019-04-28T08:39:01.647Z,100578.00
2019-04-28T08:41:31.329Z,100566.00
2019-04-28T08:44:01.438Z,100575.00
2019-04-28T08:46:31.246Z,100574.00
2019-04-28T08:49:01.207Z,100576.00
2019-04-28T08:51:31.113Z,100575.00
2019-04-28T08:54:00.890Z,100576.00
2019-04-28T08:56:30.636Z,100579.00
2019-04-28T08:59:00.658Z,100587.00
2019-04-28T09:01:30.396Z,100599.00
2019-04-28T09:04:00.390Z,100605.00
2019-04-28T09:06:30.109Z,100597.00
2019-04-28T09:08:59.883Z,100610.00
2019-04-28T09:11:29.552Z,100610.00
2019-04-28T09:13:59.274Z,100611.00
2019-04-28T09:16:28.950Z,100608.00
2019-04-28T09:18:58.636Z,100607.00
2019-04-28T09:21:28.334Z,100608.00
2019-04-28T09:23:58.993Z,100626.00
2019-04-28T09:26:28.738Z,100622.00
2019-04-28T09:29:00.082Z,100623.00
2019-04-28T09:31:30.515Z,100625.00
2019-04-28T09:34:01.223Z,100621.00
2019-04-28T09:36:30.870Z,100625.00
2019-04-28T09:39:00.603Z,100632.00
2019-04-28T09:41:30.683Z,100636.00
2019-04-28T09:44:01.994Z,100625.00
2019-04-28T09:46:33.349Z,100623.00
2019-04-28T09:49:03.356Z,100622.00
2019-04-28T09:51:34.659Z,100624.00
2019-04-28T09:54:06.065Z,100622.00
2019-04-28T09:56:36.549Z,100634.00
2019-04-28T09:59:06.435Z,100626.00
2019-04-28T10:01:36.103Z,100633.00
2019-04-28T10:04:09.527Z,100637.00
2019-04-28T10:06:39.513Z,100629.00
2019-04-28T10:09:11.664Z,100635.00
2019-04-28T10:11:42.869Z,100634.00
2019-04-28T10:14:12.534Z,100643.00
2019-04-28T10:16:42.985Z,100636.00
2019-04-28T10:19:14.161Z,100630.00
2019-04-28T10:21:43.846Z,100645.00
2019-04-28T10:24:13.556Z,100633.00
2019-04-28T10:26:43.269Z,100626.00
2019-04-28T10:29:12.944Z,100625.00
2019-04-28T10:31:44.229Z,100632.00
2019-04-28T10:34:13.911Z,100623.00
2019-04-28T10:36:43.605Z,100640.00
2019-04-28T10:39:30.475Z,100637.00
2019-04-28T10:42:00.146Z,100637.00
2019-04-28T10:44:31.449Z,100652.00
2019-04-28T10:47:01.290Z,100641.00
2019-04-28T10:49:31.382Z,100639.00
2019-04-28T10:52:01.056Z,100657.00
2019-04-28T10:54:30.822Z,100655.00
2019-04-28T10:57:01.204Z,100663.00
2019-04-28T10:59:32.012Z,100657.00
2019-04-28T11:02:04.761Z,100665.00
2019-04-28T11:04:39.113Z,100666.00
2019-04-28T11:07:12.104Z,100661.00
2019-04-28T11:09:53.365Z,100665.00
2019-04-28T11:12:24.692Z,100660.00
2019-04-28T11:14:54.374Z,100653.00
2019-04-28T11:17:28.983Z,100663.00
2019-04-28T11:19:58.685Z,100669.00
2019-04-28T11:22:28.374Z,100664.00
2019-04-28T11:24:58.048Z,100655.00
2019-04-28T11:27:28.800Z,100673.00
2019-04-28T11:30:00.136Z,100664.00
2019-04-28T11:32:29.880Z,100667.00
2019-04-28T11:35:03.909Z,100656.00
2019-04-28T11:37:33.588Z,100665.00
2019-04-28T11:40:03.513Z,100676.00
2019-04-28T11:42:33.272Z,100668.00
2019-04-28T11:45:02.824Z,100665.00
2019-04-28T11:47:32.806Z,100675.00
2019-04-28T11:50:02.499Z,100672.00
2019-04-28T11:52:32.202Z,100676.00
2019-04-28T11:55:01.863Z,100675.00
2019-04-28T11:57:33.129Z,100674.00
2019-04-28T12:00:04.445Z,100668.00
2019-04-28T12:02:34.134Z,100668.00
2019-04-28T12:05:04.896Z,100665.00
2019-04-28T12:07:34.582Z,100676.00
2019-04-28T12:10:07.446Z,100680.00
2019-04-28T12:12:38.808Z,100678.00
2019-04-28T12:15:26.373Z,100695.00
2019-04-28T12:18:15.715Z,100686.00
2019-04-28T12:20:45.368Z,100689.00
2019-04-28T12:23:15.400Z,100688.00
2019-04-28T12:25:45.095Z,100696.00
2019-04-28T12:28:14.831Z,100702.00
2019-04-28T12:30:44.503Z,100697.00
2019-04-28T12:33:14.276Z,100700.00
2019-04-28T12:35:47.864Z,100706.00
2019-04-28T12:38:15.580Z,100698.00
2019-04-28T12:40:45.284Z,100700.00
2019-04-28T12:43:15.102Z,100703.00
2019-04-28T12:45:44.829Z,100696.00
2019-04-28T12:48:16.079Z,100702.00
2019-04-28T12:50:50.162Z,100704.00
2019-04-28T12:53:20.135Z,100708.00
2019-04-28T12:55:51.296Z,100713.00
2019-04-28T12:58:20.959Z,100716.00
2019-04-28T13:01:08.431Z,100732.00
2019-04-28T13:03:39.908Z,100721.00
2019-04-28T13:06:11.220Z,100726.00
2019-04-28T13:08:40.902Z,100730.00
2019-04-28T13:11:10.763Z,100730.00
2019-04-28T13:13:40.436Z,100729.00
2019-04-28T13:16:10.210Z,100732.00
2019-04-28T13:18:39.880Z,100735.00
2019-04-28T13:21:09.630Z,100726.00
2019-04-28T13:23:39.328Z,100727.00
2019-04-28T13:26:09.604Z,100742.00
2019-04-28T13:28:39.796Z,100734.00
2019-04-28T13:31:09.642Z,100742.00
2019-04-28T13:33:55.097Z,100744.00
2019-04-28T13:36:14.942Z,100740.00
2019-04-28T13:38:42.133Z,100749.00
2019-04-28T13:41:11.819Z,100742.00
2019-04-28T13:43:41.524Z,100745.00
2019-04-28T13:46:12.843Z,100747.00
2019-04-28T13:48:42.467Z,100751.00
2019-04-28T13:51:13.774Z,100742.00
2019-04-28T13:53:44.061Z,100748.00
2019-04-28T13:56:13.742Z,100755.00
2019-04-28T13:58:45.145Z,100750.00
2019-04-28T14:01:22.405Z,100752.00
2019-04-28T14:03:56.387Z,100756.00
2019-04-28T14:06:30.518Z,100753.00
2019-04-28T14:09:00.179Z,100757.00
2019-04-28T14:11:29.857Z,100748.00
2019-04-28T14:13:59.576Z,100757.00
2019-04-28T14:16:29.223Z,100755.00
2019-04-28T14:18:58.927Z,100755.00
2019-04-28T14:21:28.636Z,100751.00
2019-04-28T14:23:58.326Z,100743.00
2019-04-28T14:26:32.595Z,100743.00
2019-04-28T14:29:10.640Z,100743.00
2019-04-28T14:31:40.546Z,100763.00
2019-04-28T14:34:11.290Z,100764.00
2019-04-28T14:36:42.362Z,100761.00
2019-04-28T14:39:12.418Z,100762.00
2019-04-28T14:41:42.136Z,100755.00
2019-04-28T14:44:12.104Z,100752.00
2019-04-28T14:46:42.115Z,100746.00
2019-04-28T14:49:11.879Z,100743.00
2019-04-28T14:51:41.648Z,100735.00
2019-04-28T14:54:12.785Z,100732.00
2019-04-28T14:56:42.509Z,100747.00
2019-04-28T14:59:12.163Z,100743.00
2019-04-28T15:01:55.866Z,100747.00
2019-04-28T15:04:32.408Z,100753.00
2019-04-28T15:07:06.889Z,100763.00
2019-04-28T15:09:55.607Z,100776.00
2019-04-28T15:12:25.388Z,100772.00
2019-04-28T15:14:55.241Z,100774.00
2019-04-28T15:17:24.845Z,100772.00
2019-04-28T15:19:54.582Z,100773.00
2019-04-28T15:22:24.638Z,100783.00
2019-04-28T15:24:54.432Z,100777.00
2019-04-28T15:27:24.108Z,100776.00
2019-04-28T15:29:53.782Z,100768.00
2019-04-28T15:32:24.664Z,100768.00
2019-04-28T15:34:54.305Z,100769.00
2019-04-28T15:37:24.002Z,100776.00
2019-04-28T15:39:53.698Z,100763.00
2019-04-28T15:42:23.395Z,100769.00
2019-04-28T15:44:53.287Z,100776.00
2019-04-28T15:47:23.419Z,100782.00
2019-04-28T15:49:53.188Z,100772.00
2019-04-28T15:52:22.866Z,100785.00
2019-04-28T15:54:52.526Z,100791.00
2019-04-28T15:57:22.219Z,100789.00
2019-04-28T15:59:52.297Z,100798.00
2019-04-28T16:02:22.466Z,100797.00
2019-04-28T16:04:52.200Z,100793.00
2019-04-28T16:07:24.949Z,100797.00
2019-04-28T16:09:56.437Z,100796.00
2019-04-28T16:12:26.128Z,100805.00
2019-04-28T16:14:55.790Z,100805.00
2019-04-28T16:17:25.464Z,100811.00
2019-04-28T16:19:55.218Z,100817.00
2019-04-28T16:22:25.584Z,100814.00
2019-04-28T16:24:56.613Z,100818.00
2019-04-28T16:27:26.337Z,100816.00
2019-04-28T16:29:57.458Z,100802.00
2019-04-28T16:32:27.418Z,100822.00
2019-04-28T16:34:58.645Z,100807.00
2019-04-28T16:37:38.663Z,100814.00
2019-04-28T16:39:59.736Z,100810.00
2019-04-28T16:42:31.858Z,100820.00
2019-04-28T16:45:13.488Z,100831.00
2019-04-28T16:47:43.174Z,100824.00
2019-04-28T16:50:14.384Z,100822.00
2019-04-28T16:52:44.148Z,100826.00
2019-04-28T16:55:28.850Z,100825.00
2019-04-28T16:58:15.081Z,100822.00
2019-04-28T17:00:58.543Z,100818.00
2019-04-28T17:03:29.891Z,100829.00
2019-04-28T17:05:59.654Z,100834.00
2019-04-28T17:08:29.363Z,100828.00
2019-04-28T17:10:59.026Z,100837.00
2019-04-28T17:13:28.724Z,100832.00
2019-04-28T17:15:58.490Z,100837.00
2019-04-28T17:18:28.183Z,100844.00
2019-04-28T17:20:57.876Z,100837.00
2019-04-28T17:23:27.565Z,100849.00
2019-04-28T17:25:57.232Z,100838.00
2019-04-28T17:28:27.109Z,100844.00
2019-04-28T17:30:56.816Z,100850.00
2019-04-28T17:33:26.632Z,100854.00
2019-04-28T17:35:56.279Z,100847.00
2019-04-28T17:38:26.001Z,100847.00
2019-04-28T17:40:56.070Z,100845.00
2019-04-28T17:43:25.878Z,100846.00
2019-04-28T17:45:55.628Z,100845.00
2019-04-28T17:48:32.805Z,100849.00
2019-04-28T17:51:02.577Z,100856.00
2019-04-28T17:53:32.263Z,100853.00
2019-04-28T17:56:03.998Z,100854.00
2019-04-28T17:58:33.683Z,100846.00
2019-04-28T18:01:05.013Z,100848.00
2019-04-28T18:03:52.878Z,100855.00
2019-04-28T18:06:24.502Z,100855.00
2019-04-28T18:08:54.002Z,100864.00
2019-04-28T18:11:23.708Z,100859.00
2019-04-28T18:13:54.602Z,100866.00
2019-04-28T18:16:26.001Z,100864.00
2019-04-28T18:19:00.208Z,100873.00
2019-04-28T18:21:29.888Z,100872.00
2019-04-28T18:23:59.570Z,100879.00
2019-04-28T18:26:29.284Z,100880.00
2019-04-28T18:28:59.051Z,100883.00
2019-04-28T18:31:42.382Z,100885.00
2019-04-28T18:34:22.856Z,100888.00
2019-04-28T18:37:12.511Z,100887.00
2019-04-28T18:40:01.888Z,100890.00
2019-04-28T18:42:45.069Z,100875.00
2019-04-28T18:45:15.726Z,100892.00
2019-04-28T18:47:45.463Z,100894.00
2019-04-28T18:50:15.879Z,100900.00
2019-04-28T18:52:45.568Z,100900.00
2019-04-28T18:55:15.237Z,100899.00
2019-04-28T18:57:44.933Z,100901.00
2019-04-28T19:00:17.457Z,100901.00
2019-04-28T19:02:50.029Z,100909.00
2019-04-28T19:05:21.600Z,100904.00
2019-04-28T19:08:04.915Z,100910.00
2019-04-28T19:10:52.505Z,100914.00
2019-04-28T19:13:26.715Z,100907.00
2019-04-28T19:16:07.043Z,100909.00
2019-04-28T19:18:38.372Z,100922.00
2019-04-28T19:21:08.048Z,100912.00
2019-04-28T19:23:37.830Z,100912.00
2019-04-28T19:26:07.486Z,100916.00
2019-04-28T19:28:37.160Z,100918.00
2019-04-28T19:31:06.952Z,100930.00
2019-04-28T19:33:36.619Z,100924.00
2019-04-28T19:36:06.312Z,100937.00
2019-04-28T19:38:36.015Z,100940.00
2019-04-28T19:41:05.693Z,100939.00
2019-04-28T19:43:35.452Z,100942.00
2019-04-28T19:46:06.790Z,100950.00
2019-04-28T19:48:36.449Z,100948.00
2019-04-28T19:51:06.119Z,100945.00
2019-04-28T19:53:35.891Z,100957.00
2019-04-28T19:56:10.265Z,100947.00
2019-04-28T19:58:41.605Z,100947.00
2019-04-28T20:01:14.057Z,100954.00
2019-04-28T20:03:43.823Z,100959.00
2019-04-28T20:06:13.521Z,100963.00
2019-04-28T20:08:43.254Z,100964.00
2019-04-28T20:11:12.890Z,100969.00
2019-04-28T20:13:42.595Z,100961.00
2019-04-28T20:16:12.458Z,100976.00
2019-04-28T20:18:42.126Z,100974.00
2019-04-28T20:21:11.846Z,100969.00
2019-04-28T20:23:41.528Z,100968.00
2019-04-28T20:26:11.184Z,100977.00
2019-04-28T20:28:40.931Z,100978.00
2019-04-28T20:31:10.715Z,100990.00
2019-04-28T20:33:40.596Z,100991.00
2019-04-28T20:36:14.827Z,100987.00
2019-04-28T20:38:46.129Z,100994.00
2019-04-28T20:41:18.932Z,101000.00
2019-04-28T20:43:48.634Z,100988.00
2019-04-28T20:46:18.352Z,100990.00
2019-04-28T20:48:48.117Z,100978.00
2019-04-28T20:51:17.874Z,100991.00
2019-04-28T20:53:47.626Z,100988.00
2019-04-28T20:56:17.554Z,100994.00
2019-04-28T20:58:47.210Z,100999.00
2019-04-28T21:01:18.324Z,100992.00
2019-04-28T21:03:47.902Z,101000.00
2019-04-28T21:06:17.812Z,101005.00
2019-04-28T21:08:47.416Z,101009.00
2019-04-28T21:11:17.251Z,101014.00
2019-04-28T21:13:47.002Z,101009.00
2019-04-28T21:16:16.681Z,101016.00
2019-04-28T21:18:46.335Z,101020.00
2019-04-28T21:21:16.053Z,101019.00
2019-04-28T21:23:45.785Z,101017.00
2019-04-28T21:26:15.397Z,101022.00
2019-04-28T21:28:46.135Z,101023.00
2019-04-28T21:31:16.424Z,101024.00
2019-04-28T21:33:46.188Z,101011.00
2019-04-28T21:36:15.861Z,101026.00
2019-04-28T21:38:47.187Z,101018.00
2019-04-28T21:41:16.898Z,101025.00
2019-04-28T21:43:48.222Z,101027.00
2019-04-28T21:46:19.544Z,101038.00
2019-04-28T21:48:50.801Z,101027.00
2019-04-28T21:51:20.582Z,101025.00
2019-04-28T21:53:50.331Z,101033.00
2019-04-28T21:56:20.011Z,101018.00
2019-04-28T21:58:49.858Z,101029.00
2019-04-28T22:01:22.955Z,101036.00
2019-04-28T22:03:52.601Z,101038.00
2019-04-28T22:06:22.370Z,101035.00
2019-04-28T22:08:52.019Z,101033.00
2019-04-28T22:11:21.711Z,101044.00
2019-04-28T22:13:51.396Z,101040.00
2019-04-28T22:16:22.632Z,101042.00
2019-04-28T22:18:52.298Z,101048.00
2019-04-28T22:21:22.007Z,101042.00
2019-04-28T22:23:53.308Z,101043.00
2019-04-28T22:26:40.700Z,101042.00
2019-04-28T22:29:11.361Z,101052.00
2019-04-28T22:31:42.201Z,101046.00
2019-04-28T22:34:14.670Z,101044.00
2019-04-28T22:36:46.527Z,101045.00
2019-04-28T22:39:16.910Z,101054.00
2019-04-28T22:41:46.586Z,101055.00
2019-04-28T22:44:18.071Z,101054.00
2019-04-28T22:46:47.819Z,101062.00
2019-04-28T22:49:17.606Z,101061.00
2019-04-28T22:51:48.795Z,101062.00
2019-04-28T22:54:40.156Z,101064.00
2019-04-28T22:57:27.536Z,101061.00
2019-04-28T22:59:59.091Z,101066.00
2019-04-28T23:02:31.932Z,101076.00
2019-04-28T23:05:03.367Z,101064.00
2019-04-28T23:07:33.198Z,101068.00
2019-04-28T23:10:03.093Z,101065.00
2019-04-28T23:12:32.778Z,101075.00
2019-04-28T23:15:03.133Z,101068.00
2019-04-28T23:17:32.814Z,101072.00
2019-04-28T23:20:02.552Z,101074.00
2019-04-28T23:22:47.044Z,101076.00
2019-04-28T23:25:18.797Z,101081.00
2019-04-28T23:27:48.504Z,101075.00
2019-04-28T23:30:39.362Z,101082.00
2019-04-28T23:33:10.621Z,101088.00
2019-04-28T23:35:43.486Z,101085.00
2019-04-28T23:38:14.631Z,101087.00
2019-04-28T23:40:48.650Z,101086.00
2019-04-28T23:43:24.122Z,101089.00
2019-04-28T23:45:53.796Z,101088.00
2019-04-28T23:48:23.497Z,101084.00
2019-04-28T23:51:00.944Z,101091.00
2019-04-28T23:53:49.837Z,101091.00
2019-04-28T23:56:19.596Z,101088.00
2019-04-28T23:58:49.391Z,101103.00
